Time;durP1;ratioP1;P1;durP2;ratioP2;P2;SDS_P1;SDS_P2;PMS_P1;PMS_P2;Temp;Humidity;BMP_temperature;BMP_pressure;BME280_temperature;BME280_humidity;BME280_pressure;Samples;Min_cycle;Max_cycle;Signal;HPM_P1;HPM_P2
2021/07/14 00:01:57;;;;;;;42.03;38.03;;;;;;;20.11;100.00;99575.84;5033114;28;20213;-78
2021/07/14 00:04:23;;;;;;;41.87;38.30;;;;;;;20.06;100.00;99583.28;5033912;28;20206;-78
2021/07/14 00:06:49;;;;;;;42.13;38.20;;;;;;;20.00;100.00;99593.38;5032991;28;20279;-78
2021/07/14 00:09:16;;;;;;;43.20;39.43;;;;;;;19.96;100.00;99606.94;5033274;28;20205;-78
2021/07/14 00:11:45;;;;;;;45.30;40.80;;;;;;;19.93;100.00;99620.41;5033278;28;20266;-78
2021/07/14 00:14:28;;;;;;;44.73;40.67;;;;;;;19.90;100.00;99628.56;5033020;28;20293;-78
2021/07/14 00:22:25;;;;;;;46.33;41.53;;;;;;;19.81;100.00;99675.09;5032326;28;20303;-77
2021/07/14 00:24:52;;;;;;;43.53;39.57;;;;;;;19.84;100.00;99693.41;5033211;28;20258;-77
2021/07/14 00:27:19;;;;;;;44.33;40.30;;;;;;;19.83;100.00;99705.81;5033006;28;20320;-78
2021/07/14 00:29:50;;;;;;;46.30;41.37;;;;;;;19.84;100.00;99709.28;5033538;28;20252;-78
2021/07/14 00:32:19;;;;;;;42.27;38.10;;;;;;;19.88;100.00;99713.44;5032512;28;20298;-78
2021/07/14 00:34:45;;;;;;;39.53;35.60;;;;;;;20.02;100.00;99712.50;5033153;28;20349;-78
2021/07/14 00:37:12;;;;;;;40.20;36.27;;;;;;;20.14;100.00;99724.88;5032884;28;20229;-78
2021/07/14 00:39:39;;;;;;;42.37;38.30;;;;;;;20.16;100.00;99733.56;5031867;28;20228;-78
2021/07/14 00:42:06;;;;;;;40.17;36.70;;;;;;;20.18;99.72;99731.66;5031889;28;20865;-78
2021/07/14 00:44:33;;;;;;;40.87;37.43;;;;;;;20.15;99.86;99731.84;5033233;28;20209;-78
2021/07/14 00:47:01;;;;;;;39.23;35.47;;;;;;;20.21;99.77;99731.41;5032421;28;20244;-78
2021/07/14 00:49:29;;;;;;;39.00;35.20;;;;;;;20.26;99.30;99743.50;5034373;28;20203;-78
2021/07/14 00:51:56;;;;;;;38.10;34.30;;;;;;;20.36;98.82;99749.88;5036342;28;20206;-78
2021/07/14 00:54:22;;;;;;;41.20;37.63;;;;;;;20.35;98.61;99756.09;5036614;28;20266;-78
2021/07/14 00:56:49;;;;;;;41.73;37.90;;;;;;;20.24;99.17;99747.13;5036796;28;20658;-79
2021/07/14 00:59:15;;;;;;;41.27;37.37;;;;;;;20.21;99.38;99738.53;5036762;28;20640;-78
2021/07/14 01:01:44;;;;;;;43.03;39.07;;;;;;;20.11;99.78;99722.41;5036938;28;20210;-77
2021/07/14 01:04:13;;;;;;;39.97;36.30;;;;;;;20.16;99.98;99716.81;5036365;28;20748;-78
2021/07/14 01:06:48;;;;;;;41.90;37.87;;;;;;;20.17;99.84;99716.69;5037418;28;20234;-78
2021/07/14 01:09:17;;;;;;;39.97;36.23;;;;;;;20.21;99.90;99715.50;5037439;28;20684;-78
2021/07/14 01:11:48;;;;;;;39.30;35.70;;;;;;;20.25;99.35;99713.50;5038148;28;20248;-79
2021/07/14 01:14:22;;;;;;;40.63;36.70;;;;;;;20.20;99.49;99720.94;5037181;28;20266;-78
2021/07/14 01:16:55;;;;;;;41.47;37.77;;;;;;;20.18;99.18;99712.25;5037509;28;20235;-78
2021/07/14 01:19:36;;;;;;;40.40;36.80;;;;;;;20.16;99.72;99711.53;5037246;28;20229;-79
2021/07/14 01:22:13;;;;;;;40.53;37.13;;;;;;;20.13;99.79;99706.41;5037004;28;20217;-78
2021/07/14 01:24:51;;;;;;;40.80;37.13;;;;;;;20.14;99.63;99710.78;5037570;28;20212;-78
2021/07/14 01:27:20;;;;;;;40.93;37.10;;;;;;;20.11;99.97;99700.38;5036165;28;20282;-78
2021/07/14 01:29:51;;;;;;;39.00;35.53;;;;;;;20.12;99.63;99699.41;5035953;28;20917;-78
2021/07/14 01:32:19;;;;;;;39.57;36.27;;;;;;;20.09;99.56;99703.13;5035637;28;20280;-78
2021/07/14 01:34:51;;;;;;;41.17;37.57;;;;;;;20.05;99.63;99691.06;5036269;28;20235;-78
2021/07/14 01:37:20;;;;;;;41.93;38.20;;;;;;;19.98;100.00;99684.47;5036229;28;20650;-78
2021/07/14 01:39:49;;;;;;;40.77;36.87;;;;;;;19.98;100.00;99669.47;5034981;28;20224;-78
2021/07/14 01:42:17;;;;;;;40.23;36.70;;;;;;;19.98;100.00;99666.81;5035508;28;20208;-78
2021/07/14 01:44:45;;;;;;;43.10;38.53;;;;;;;19.91;100.00;99656.75;5036424;28;20212;-78
2021/07/14 01:47:13;;;;;;;41.67;37.47;;;;;;;19.86;100.00;99637.69;5035967;28;20773;-78
2021/07/14 01:49:42;;;;;;;47.60;38.17;;;;;;;19.78;100.00;99620.53;5036428;28;20249;-77
2021/07/14 01:52:12;;;;;;;46.73;40.20;;;;;;;19.79;100.00;99616.94;5035681;28;20209;-78
2021/07/14 01:54:40;;;;;;;42.87;38.67;;;;;;;19.73;100.00;99609.41;5035458;28;20205;-78
2021/07/14 01:57:08;;;;;;;44.77;40.00;;;;;;;19.75;100.00;99614.59;5035888;28;20276;-78
2021/07/14 01:59:37;;;;;;;46.53;41.73;;;;;;;19.70;100.00;99603.44;5035973;28;20247;-78
2021/07/14 02:02:06;;;;;;;48.43;41.87;;;;;;;19.68;100.00;99602.72;5033739;28;20205;-78
2021/07/14 02:04:34;;;;;;;47.13;42.47;;;;;;;19.67;100.00;99599.22;5035184;28;20251;-78
2021/07/14 02:07:05;;;;;;;47.60;42.90;;;;;;;19.73;100.00;99605.94;5034752;28;20223;-78
2021/07/14 02:09:34;;;;;;;45.77;41.10;;;;;;;19.73;100.00;99612.06;5035082;28;20204;-77
2021/07/14 02:12:03;;;;;;;46.40;41.57;;;;;;;19.76;100.00;99611.84;5026722;28;20349;-78
2021/07/14 02:14:32;;;;;;;49.47;44.13;;;;;;;19.68;100.00;99608.00;5034724;28;20768;-78
2021/07/14 02:17:02;;;;;;;54.70;44.63;;;;;;;19.62;100.00;99599.56;5034401;28;20322;-78
2021/07/14 02:19:33;;;;;;;51.83;46.30;;;;;;;19.63;100.00;99595.09;5034387;28;20644;-78
2021/07/14 02:22:00;;;;;;;58.70;48.03;;;;;;;19.63;100.00;99598.59;5034295;28;20217;-78
2021/07/14 02:24:27;;;;;;;54.17;45.87;;;;;;;19.66;100.00;99597.50;5034937;28;20208;-78
2021/07/14 02:26:54;;;;;;;54.00;47.20;;;;;;;19.63;100.00;99597.75;5034774;28;20228;-77
2021/07/14 02:29:21;;;;;;;51.20;45.97;;;;;;;19.63;100.00;99598.59;5034703;28;20239;-77
2021/07/14 02:31:47;;;;;;;47.07;42.27;;;;;;;19.69;100.00;99599.97;5034309;28;20269;-77
2021/07/14 02:34:13;;;;;;;48.60;43.13;;;;;;;19.74;100.00;99608.47;5033775;28;20213;-78
2021/07/14 02:36:45;;;;;;;48.43;43.20;;;;;;;19.79;100.00;99626.69;5034056;28;20228;-78
2021/07/14 02:39:13;;;;;;;48.97;41.93;;;;;;;19.78;100.00;99628.50;5033467;28;20208;-78
2021/07/14 02:41:45;;;;;;;46.57;41.57;;;;;;;19.73;100.00;99633.25;5034371;28;20211;-78
2021/07/14 02:44:14;;;;;;;46.03;41.33;;;;;;;19.69;100.00;99633.53;5033846;28;20217;-77
2021/07/14 02:46:43;;;;;;;48.30;43.10;;;;;;;19.60;100.00;99627.06;5034017;28;20241;-78
2021/07/14 02:49:13;;;;;;;46.20;41.30;;;;;;;19.57;100.00;99620.19;5033930;28;20686;-78
2021/07/14 02:51:43;;;;;;;50.47;43.30;;;;;;;19.54;100.00;99625.69;5033504;28;20671;-77
2021/07/14 02:54:17;;;;;;;49.00;42.47;;;;;;;19.54;100.00;99624.84;5033761;28;20209;-78
2021/07/14 02:56:47;;;;;;;42.93;38.60;;;;;;;19.66;100.00;99631.94;5033731;28;20229;-77
2021/07/14 02:59:14;;;;;;;41.43;36.87;;;;;;;19.72;100.00;99646.59;5033947;28;20268;-78
2021/07/14 03:01:43;;;;;;;42.07;37.77;;;;;;;19.68;100.00;99650.38;5033776;28;20232;-78
2021/07/14 03:04:10;;;;;;;38.53;34.30;;;;;;;19.82;100.00;99660.88;5033507;28;20706;-78
2021/07/14 03:06:38;;;;;;;38.57;35.17;;;;;;;19.87;100.00;99679.94;5034162;28;20233;-78
2021/07/14 03:09:05;;;;;;;38.43;34.63;;;;;;;19.86;100.00;99690.66;5034408;28;20211;-78
2021/07/14 03:11:35;;;;;;;38.67;34.90;;;;;;;19.73;100.00;99691.50;5033733;28;20201;-78
2021/07/14 03:14:03;;;;;;;38.20;34.70;;;;;;;19.62;100.00;99672.81;5034313;28;20240;-77
2021/07/14 03:16:31;;;;;;;38.17;34.77;;;;;;;19.58;100.00;99664.28;5033845;28;20236;-78
2021/07/14 03:18:58;;;;;;;41.70;37.80;;;;;;;19.52;100.00;99656.72;5034381;28;20214;-78
2021/07/14 03:21:25;;;;;;;40.83;36.47;;;;;;;19.52;100.00;99659.38;5034328;28;20281;-78
2021/07/14 03:23:52;;;;;;;39.07;35.67;;;;;;;19.57;100.00;99662.56;5033753;28;20210;-78
2021/07/14 03:26:18;;;;;;;38.57;35.20;;;;;;;19.56;100.00;99666.19;5035204;28;20809;-78
2021/07/14 03:28:46;;;;;;;39.13;35.10;;;;;;;19.51;100.00;99651.56;5035015;28;20208;-77
2021/07/14 03:31:14;;;;;;;45.70;37.57;;;;;;;19.46;100.00;99649.22;5035257;28;20205;-78
2021/07/14 03:33:41;;;;;;;40.27;36.67;;;;;;;19.45;100.00;99642.22;5034043;28;20212;-78
2021/07/14 03:36:09;;;;;;;40.83;36.83;;;;;;;19.46;100.00;99643.91;5034674;28;20233;-78
2021/07/14 03:38:36;;;;;;;40.83;36.90;;;;;;;19.45;100.00;99647.53;5033570;28;20205;-78
2021/07/14 03:41:04;;;;;;;41.93;37.73;;;;;;;19.41;100.00;99646.88;5034709;28;20316;-78
2021/07/14 03:43:32;;;;;;;41.97;37.63;;;;;;;19.42;100.00;99647.72;5033949;28;20216;-77
2021/07/14 03:46:02;;;;;;;41.40;37.40;;;;;;;19.37;100.00;99650.69;5032913;28;20236;-77
2021/07/14 03:48:30;;;;;;;43.13;38.60;;;;;;;19.34;100.00;99645.59;5032058;28;20250;-77
2021/07/14 03:50:58;;;;;;;41.67;37.33;;;;;;;19.31;100.00;99639.69;5032912;28;20248;-78
2021/07/14 03:53:25;;;;;;;40.80;36.73;;;;;;;19.29;100.00;99644.25;5032290;28;20691;-77
2021/07/14 03:55:52;;;;;;;40.80;36.77;;;;;;;19.30;100.00;99649.41;5034332;28;20624;-78
2021/07/14 03:58:19;;;;;;;39.80;36.00;;;;;;;19.32;100.00;99649.31;5039182;28;20227;-78
2021/07/14 04:00:48;;;;;;;40.13;35.93;;;;;;;19.33;100.00;99651.00;5038771;28;20254;-78
2021/07/14 04:03:21;;;;;;;43.60;36.57;;;;;;;19.34;100.00;99644.75;5036408;28;20690;-77
2021/07/14 04:05:50;;;;;;;41.20;37.10;;;;;;;19.35;100.00;99644.66;5043275;28;20200;-78
2021/07/14 04:08:20;;;;;;;40.93;36.80;;;;;;;19.36;100.00;99641.03;5053607;28;20200;-77
2021/07/14 04:10:46;;;;;;;39.70;35.67;;;;;;;19.37;100.00;99642.75;5056092;28;20188;-78
2021/07/14 04:13:12;;;;;;;41.50;37.20;;;;;;;19.47;100.00;99642.13;5052680;28;20201;-77
2021/07/14 04:15:39;;;;;;;40.87;36.27;;;;;;;19.51;100.00;99649.75;5053686;28;20198;-78
2021/07/14 04:18:08;;;;;;;42.00;37.17;;;;;;;19.52;100.00;99651.44;5052558;28;20255;-77
2021/07/14 04:20:37;;;;;;;54.40;41.17;;;;;;;19.50;100.00;99657.78;5051566;28;20217;-78
2021/07/14 04:23:04;;;;;;;49.30;40.90;;;;;;;19.49;100.00;99656.13;5053174;28;20205;-78
2021/07/14 04:25:30;;;;;;;55.63;41.97;;;;;;;19.49;100.00;99664.88;5058032;28;20233;-78
2021/07/14 04:27:57;;;;;;;55.23;42.60;;;;;;;19.45;100.00;99661.59;5059670;28;20214;-78
2021/07/14 04:30:23;;;;;;;59.13;45.17;;;;;;;19.41;100.00;99660.13;5048169;28;20196;-76
2021/07/14 04:32:50;;;;;;;58.37;44.00;;;;;;;19.31;100.00;99659.06;5045133;28;20204;-77
2021/07/14 04:35:16;;;;;;;71.67;46.47;;;;;;;19.28;100.00;99653.94;5053101;28;20202;-79
2021/07/14 04:37:47;;;;;;;68.57;46.17;;;;;;;19.28;100.00;99650.47;5058310;28;20203;-78
2021/07/14 04:40:13;;;;;;;61.93;43.47;;;;;;;19.39;100.00;99658.53;5051848;28;20219;-78
2021/07/14 04:42:40;;;;;;;65.83;44.90;;;;;;;19.40;100.00;99653.13;5057749;28;20722;-78
2021/07/14 04:45:07;;;;;;;64.97;44.80;;;;;;;19.36;100.00;99658.72;5059565;28;20185;-78
2021/07/14 04:47:33;;;;;;;66.27;46.30;;;;;;;19.33;100.00;99645.72;5037600;28;20254;-80
2021/07/14 04:50:00;;;;;;;72.43;46.50;;;;;;;19.30;100.00;99645.91;5040239;28;20205;-79
2021/07/14 04:52:26;;;;;;;66.70;46.53;;;;;;;19.31;100.00;99637.03;5038816;28;20198;-79
2021/07/14 04:54:54;;;;;;;66.83;47.03;;;;;;;19.26;100.00;99632.03;5036097;28;20235;-80
2021/07/14 04:57:20;;;;;;;71.83;46.77;;;;;;;19.24;100.00;99620.72;5038277;28;20643;-79
2021/07/14 04:59:46;;;;;;;67.43;47.23;;;;;;;19.24;100.00;99618.06;5038496;28;20208;-79
2021/07/14 05:02:13;;;;;;;67.53;48.87;;;;;;;19.25;100.00;99622.44;5035980;28;20224;-77
2021/07/14 05:04:40;;;;;;;71.93;49.03;;;;;;;19.28;100.00;99618.72;5039439;28;20209;-79
2021/07/14 05:07:07;;;;;;;71.63;47.70;;;;;;;19.30;100.00;99630.03;5039364;28;20706;-79
2021/07/14 05:09:33;;;;;;;66.30;47.23;;;;;;;19.29;100.00;99628.38;5037743;28;20201;-79
2021/07/14 05:12:01;;;;;;;67.53;45.97;;;;;;;19.35;100.00;99623.50;5039189;28;20199;-76
2021/07/14 05:14:27;;;;;;;64.57;44.57;;;;;;;19.49;100.00;99637.59;5036748;28;20210;-77
2021/07/14 05:16:54;;;;;;;57.43;42.60;;;;;;;19.61;100.00;99636.72;5036902;28;20219;-78
2021/07/14 05:19:20;;;;;;;53.13;40.63;;;;;;;19.69;100.00;99642.34;5037410;28;20259;-78
2021/07/14 05:21:47;;;;;;;54.43;41.77;;;;;;;19.65;100.00;99654.09;5034729;28;20661;-77
2021/07/14 05:24:13;;;;;;;58.40;43.07;;;;;;;19.67;100.00;99657.47;5034038;28;20200;-78
2021/07/14 05:26:40;;;;;;;60.73;42.33;;;;;;;19.63;100.00;99664.78;5036650;28;20224;-78
2021/07/14 05:29:07;;;;;;;68.17;43.53;;;;;;;19.65;100.00;99669.97;5036905;28;20620;-78
2021/07/14 05:31:34;;;;;;;66.33;45.47;;;;;;;19.60;100.00;99670.31;5034367;28;20193;-79
2021/07/14 05:34:00;;;;;;;69.97;44.83;;;;;;;19.62;100.00;99673.69;5036215;28;20212;-78
2021/07/14 05:36:27;;;;;;;64.97;42.77;;;;;;;19.61;100.00;99666.69;5036643;28;20222;-78
2021/07/14 05:38:57;;;;;;;62.47;45.03;;;;;;;19.62;100.00;99662.22;5036606;28;20217;-78
2021/07/14 05:41:23;;;;;;;61.57;44.07;;;;;;;19.64;100.00;99677.09;5036792;28;20249;-78
2021/07/14 05:43:50;;;;;;;54.83;42.03;;;;;;;19.72;100.00;99673.06;5036226;28;20233;-78
2021/07/14 05:46:20;;;;;;;50.33;40.47;;;;;;;19.89;100.00;99666.59;5036388;28;20232;-78
2021/07/14 05:48:46;;;;;;;56.13;42.37;;;;;;;19.93;100.00;99676.88;5037325;28;20208;-79
2021/07/14 05:51:13;;;;;;;51.37;40.33;;;;;;;19.90;100.00;99681.53;5037853;28;20240;-79
2021/07/14 05:53:39;;;;;;;45.13;39.73;;;;;;;19.94;100.00;99683.88;5036998;28;20204;-78
2021/07/14 05:56:05;;;;;;;49.13;38.87;;;;;;;20.01;100.00;99682.47;5036754;28;20228;-79
2021/07/14 05:58:32;;;;;;;41.90;36.90;;;;;;;20.12;100.00;99702.06;5037258;28;20232;-78
2021/07/14 06:00:58;;;;;;;47.03;39.40;;;;;;;20.15;100.00;99715.94;5036892;28;20216;-78
2021/07/14 06:03:25;;;;;;;52.37;40.47;;;;;;;20.07;100.00;99718.28;5035975;28;20205;-77
2021/07/14 06:05:52;;;;;;;61.23;42.87;;;;;;;19.87;100.00;99716.19;5034913;28;20297;-77
2021/07/14 06:08:18;;;;;;;56.03;43.83;;;;;;;19.84;100.00;99709.28;5035279;28;20205;-78
2021/07/14 06:10:45;;;;;;;68.07;46.37;;;;;;;19.80;100.00;99708.69;5035062;28;20195;-76
2021/07/14 06:13:11;;;;;;;68.80;44.13;;;;;;;19.85;100.00;99700.41;5033106;28;20258;-77
2021/07/14 06:15:37;;;;;;;73.53;46.40;;;;;;;19.82;100.00;99701.47;5033796;28;20196;-77
2021/07/14 06:18:04;;;;;;;75.47;48.03;;;;;;;19.83;100.00;99697.00;5034722;28;20200;-77
2021/07/14 06:20:31;;;;;;;72.17;46.97;;;;;;;19.86;100.00;99701.25;5037450;28;20232;-79
2021/07/14 06:22:58;;;;;;;78.23;48.10;;;;;;;19.79;100.00;99703.47;5036164;28;20671;-78
2021/07/14 06:25:24;;;;;;;73.17;46.63;;;;;;;19.84;100.00;99698.69;5034940;28;20198;-78
2021/07/14 06:27:50;;;;;;;68.20;46.50;;;;;;;19.90;100.00;99710.66;5035329;28;20223;-80
2021/07/14 06:30:18;;;;;;;72.13;47.77;;;;;;;19.89;100.00;99709.00;5037451;28;20247;-79
2021/07/14 06:32:51;;;;;;;74.43;48.00;;;;;;;19.96;100.00;99715.53;5036729;28;20229;-79
2021/07/14 06:35:17;;;;;;;66.93;47.27;;;;;;;19.97;100.00;99714.59;5034809;28;20204;-79
2021/07/14 06:37:46;;;;;;;65.17;47.73;;;;;;;19.96;100.00;99724.34;5036290;28;20221;-78
2021/07/14 06:40:13;;;;;;;68.90;46.73;;;;;;;20.02;100.00;99726.56;5035895;28;20202;-80
2021/07/14 06:42:40;;;;;;;65.67;45.47;;;;;;;20.00;100.00;99725.00;5037236;28;20232;-79
2021/07/14 06:45:08;;;;;;;67.63;46.83;;;;;;;19.89;100.00;99727.53;5037044;28;20202;-79
2021/07/14 06:47:35;;;;;;;67.87;48.70;;;;;;;19.84;100.00;99706.63;5031918;28;20283;-79
2021/07/14 06:50:01;;;;;;;79.37;49.60;;;;;;;19.74;100.00;99685.28;5036683;28;20209;-78
2021/07/14 06:52:28;;;;;;;80.77;49.97;;;;;;;19.76;100.00;99671.91;5036281;28;20202;-79
2021/07/14 06:54:55;;;;;;;79.83;49.97;;;;;;;19.82;100.00;99677.63;5035982;28;20203;-78
2021/07/14 06:57:24;;;;;;;76.87;50.00;;;;;;;19.74;100.00;99679.09;5037041;28;20250;-79
2021/07/14 06:59:51;;;;;;;79.20;49.17;;;;;;;19.81;100.00;99681.22;5036333;28;20221;-78
2021/07/14 07:02:18;;;;;;;75.67;50.00;;;;;;;19.80;100.00;99684.84;5035949;28;20231;-79
2021/07/14 07:04:44;;;;;;;68.97;46.40;;;;;;;19.88;100.00;99672.84;5035790;28;20204;-79
2021/07/14 07:07:11;;;;;;;78.50;49.60;;;;;;;19.84;100.00;99675.72;5034932;28;20224;-79
2021/07/14 07:09:37;;;;;;;81.07;51.23;;;;;;;19.82;100.00;99674.13;5035690;28;20208;-79
2021/07/14 07:12:06;;;;;;;77.17;49.30;;;;;;;19.69;100.00;99665.31;5035508;28;20271;-78
2021/07/14 07:14:33;;;;;;;72.40;48.63;;;;;;;19.72;100.00;99663.34;5033272;28;20743;-78
2021/07/14 07:16:59;;;;;;;80.70;47.87;;;;;;;19.68;100.00;99655.66;5036315;28;20220;-79
2021/07/14 07:19:25;;;;;;;80.73;50.97;;;;;;;19.67;100.00;99648.69;5035111;28;20255;-80
2021/07/14 07:21:52;;;;;;;74.87;49.33;;;;;;;19.64;100.00;99647.09;5037263;28;20624;-78
2021/07/14 07:24:18;;;;;;;77.87;48.57;;;;;;;19.70;100.00;99656.41;5037079;28;20201;-79
2021/07/14 07:26:47;;;;;;;68.17;47.07;;;;;;;19.77;100.00;99657.72;5037040;28;20231;-79
2021/07/14 07:29:15;;;;;;;77.53;47.63;;;;;;;19.65;100.00;99657.56;5033442;28;20202;-79
2021/07/14 07:31:42;;;;;;;73.00;48.47;;;;;;;19.57;100.00;99649.31;5034821;28;20299;-78
2021/07/14 07:34:08;;;;;;;78.37;48.27;;;;;;;19.55;100.00;99632.69;5034466;28;20242;-80
2021/07/14 07:36:35;;;;;;;80.73;48.67;;;;;;;19.56;100.00;99638.84;5036205;28;20227;-79
2021/07/14 07:39:01;;;;;;;77.37;49.53;;;;;;;19.55;100.00;99638.00;5035590;28;20211;-79
2021/07/14 07:41:28;;;;;;;80.63;49.77;;;;;;;19.55;100.00;99634.50;5035095;28;20261;-79
2021/07/14 07:43:55;;;;;;;75.73;48.80;;;;;;;19.61;100.00;99648.16;5034141;28;20205;-77
2021/07/14 07:46:23;;;;;;;81.50;49.93;;;;;;;19.58;100.00;99647.50;5034556;28;20223;-79
2021/07/14 07:48:50;;;;;;;79.73;50.47;;;;;;;19.58;100.00;99642.22;5036316;28;20266;-80
2021/07/14 07:51:17;;;;;;;76.40;48.87;;;;;;;19.59;100.00;99646.56;5036542;28;20251;-80
2021/07/14 07:53:44;;;;;;;75.50;47.37;;;;;;;19.62;100.00;99641.06;5035555;28;20203;-80
2021/07/14 07:56:10;;;;;;;77.43;48.93;;;;;;;19.69;100.00;99638.84;5035902;28;20226;-79
2021/07/14 07:58:37;;;;;;;76.73;48.57;;;;;;;19.72;100.00;99644.81;5035002;28;20672;-78
2021/07/14 08:01:04;;;;;;;71.30;46.70;;;;;;;19.72;100.00;99657.19;5034940;28;20206;-80
2021/07/14 08:03:31;;;;;;;77.07;47.90;;;;;;;19.77;100.00;99670.97;5034771;28;20241;-77
2021/07/14 08:05:58;;;;;;;72.83;47.10;;;;;;;19.76;100.00;99675.41;5035502;28;20217;-80
2021/07/14 08:08:24;;;;;;;69.33;46.47;;;;;;;19.86;100.00;99680.06;5036733;28;20674;-82
2021/07/14 08:10:53;;;;;;;63.00;45.07;;;;;;;19.95;100.00;99698.81;5035483;28;20207;-80
2021/07/14 08:13:20;;;;;;;61.57;45.20;;;;;;;19.88;100.00;99713.44;5035326;28;20204;-80
2021/07/14 08:15:46;;;;;;;61.97;44.40;;;;;;;19.89;100.00;99716.94;5036035;28;20199;-80
2021/07/14 08:18:13;;;;;;;60.67;43.57;;;;;;;19.96;100.00;99713.75;5036130;28;20204;-82
2021/07/14 08:20:41;;;;;;;56.83;43.43;;;;;;;20.07;100.00;99720.09;5036071;28;20205;-80
2021/07/14 08:23:07;;;;;;;63.07;43.63;;;;;;;20.02;100.00;99717.78;5036057;28;20708;-79
2021/07/14 08:25:34;;;;;;;62.97;42.83;;;;;;;19.98;100.00;99710.97;5033347;28;20203;-78
2021/07/14 08:28:00;;;;;;;56.97;43.30;;;;;;;19.93;100.00;99711.31;5035816;28;20208;-80
2021/07/14 08:30:27;;;;;;;62.60;43.33;;;;;;;19.90;100.00;99708.03;5036094;28;20240;-80
2021/07/14 08:32:54;;;;;;;62.60;44.20;;;;;;;19.96;100.00;99707.59;5031280;28;20198;-80
2021/07/14 08:35:20;;;;;;;54.97;40.50;;;;;;;20.06;100.00;99708.66;5035113;28;20713;-81
2021/07/14 08:37:48;;;;;;;57.23;42.37;;;;;;;20.08;100.00;99727.94;5035737;28;20727;-79
2021/07/14 08:40:15;;;;;;;61.17;44.40;;;;;;;20.00;100.00;99720.53;5034950;28;20205;-80
2021/07/14 08:42:42;;;;;;;53.90;39.03;;;;;;;20.08;100.00;99714.72;5035791;28;20275;-80
2021/07/14 08:45:12;;;;;;;58.03;41.93;;;;;;;20.10;100.00;99717.22;5035009;28;20211;-81
2021/07/14 08:47:39;;;;;;;59.27;42.90;;;;;;;20.14;100.00;99710.78;5031672;28;20229;-77
2021/07/14 08:50:07;;;;;;;54.67;42.73;;;;;;;20.03;100.00;99701.75;5034673;28;20209;-81
2021/07/14 08:52:33;;;;;;;56.80;42.77;;;;;;;20.01;100.00;99679.81;5035724;28;20749;-79
2021/07/14 08:55:01;;;;;;;65.10;45.23;;;;;;;20.01;100.00;99663.94;5036456;28;20258;-80
2021/07/14 08:57:28;;;;;;;62.07;44.27;;;;;;;20.13;100.00;99662.22;5036448;28;20218;-79
2021/07/14 08:59:54;;;;;;;54.53;42.40;;;;;;;20.22;100.00;99676.63;5036123;28;20218;-76
2021/07/14 09:02:20;;;;;;;51.33;41.40;;;;;;;20.37;100.00;99690.56;5036293;28;20361;-79
2021/07/14 09:04:47;;;;;;;48.13;39.47;;;;;;;20.42;99.51;99722.91;5037224;28;20742;-80
2021/07/14 09:07:15;;;;;;;47.23;40.10;;;;;;;20.52;99.07;99734.56;5037229;28;20283;-81
2021/07/14 09:09:42;;;;;;;41.00;35.37;;;;;;;20.42;97.72;99783.88;5035280;28;20656;-79
2021/07/14 09:12:12;;;;;;;43.23;36.33;;;;;;;20.57;97.61;99796.06;5039240;28;20665;-77
2021/07/14 09:14:40;;;;;;;41.83;35.63;;;;;;;20.58;97.54;99788.97;5036223;28;20197;-78
2021/07/14 09:17:24;;;;;;;45.17;36.43;;;;;;;20.60;96.69;99811.78;5039036;28;20247;-78
2021/07/14 09:19:51;;;;;;;37.60;33.63;;;;;;;20.65;96.07;99827.34;5036300;28;20224;-78
2021/07/14 09:22:24;;;;;;;38.97;34.93;;;;;;;20.71;95.15;99858.75;5040075;28;20224;-80
2021/07/14 09:24:51;;;;;;;36.50;33.00;;;;;;;20.88;94.90;99870.81;5038422;28;20205;-79
2021/07/14 09:27:27;;;;;;;35.57;31.70;;;;;;;20.98;95.02;99860.41;5041449;28;20219;-80
2021/07/14 09:30:08;;;;;;;34.00;31.07;;;;;;;21.15;94.31;99883.06;5040356;28;20231;-78
2021/07/14 09:32:52;;;;;;;36.00;32.50;;;;;;;21.20;94.13;99879.13;5039758;28;20196;-79
2021/07/14 09:35:32;;;;;;;38.00;32.50;;;;;;;21.20;93.35;99900.34;5037194;28;20284;-78
2021/07/14 09:38:00;;;;;;;35.83;31.87;;;;;;;20.96;92.95;99904.78;5036930;28;20206;-80
2021/07/14 09:40:28;;;;;;;34.97;31.53;;;;;;;21.04;93.05;99894.47;5039183;28;20200;-81
2021/07/14 09:42:59;;;;;;;33.37;30.03;;;;;;;21.12;93.20;99889.44;5039916;28;20224;-80
2021/07/14 09:45:45;;;;;;;38.93;34.30;;;;;;;21.05;93.91;99864.31;5040785;28;20204;-78
2021/07/14 09:48:15;;;;;;;35.00;31.67;;;;;;;21.18;93.54;99861.63;5039919;28;20261;-78
2021/07/14 09:50:43;;;;;;;34.47;31.20;;;;;;;21.27;93.59;99849.47;5035225;28;20202;-78
2021/07/14 09:53:12;;;;;;;34.10;30.73;;;;;;;21.37;93.65;99843.41;5039643;28;20271;-79
2021/07/14 09:55:39;;;;;;;37.03;33.30;;;;;;;21.51;93.05;99860.16;5037353;28;20197;-79
2021/07/14 09:58:18;;;;;;;35.83;31.90;;;;;;;21.49;92.73;99873.53;5040049;28;20239;-79
2021/07/14 10:00:48;;;;;;;34.27;31.17;;;;;;;21.59;92.73;99865.75;5037326;28;20212;-77
2021/07/14 10:03:19;;;;;;;34.30;31.17;;;;;;;21.66;92.47;99866.13;5039268;28;20271;-79
2021/07/14 10:05:46;;;;;;;32.23;29.07;;;;;;;21.75;92.83;99847.69;5040421;28;20198;-79
2021/07/14 10:08:14;;;;;;;32.30;29.53;;;;;;;21.61;92.01;99871.78;5037379;28;20205;-80
2021/07/14 10:10:41;;;;;;;32.27;29.03;;;;;;;21.71;92.46;99853.38;5035567;28;20209;-80
2021/07/14 10:13:08;;;;;;;31.73;29.03;;;;;;;21.76;92.54;99853.84;5037106;28;20217;-80
2021/07/14 10:15:36;;;;;;;31.27;28.67;;;;;;;21.49;92.04;99876.19;5038184;28;20209;-80
2021/07/14 10:18:03;;;;;;;29.67;27.27;;;;;;;21.64;92.49;99852.94;5036573;28;20208;-81
2021/07/14 10:20:32;;;;;;;28.83;26.37;;;;;;;21.79;92.24;99867.75;5036911;28;20262;-81
2021/07/14 10:23:01;;;;;;;27.60;25.70;;;;;;;21.85;92.23;99866.44;5033188;28;20220;-79
2021/07/14 10:25:28;;;;;;;25.97;23.97;;;;;;;21.80;91.14;99904.00;5037101;28;20204;-78
2021/07/14 10:27:56;;;;;;;28.43;26.13;;;;;;;21.66;90.77;99921.91;5037725;28;20222;-79
2021/07/14 10:30:24;;;;;;;29.77;27.20;;;;;;;21.71;91.16;99909.16;5037282;28;20576;-79
2021/07/14 10:32:52;;;;;;;27.33;25.07;;;;;;;21.62;91.35;99900.03;5036502;28;20197;-80
2021/07/14 10:35:21;;;;;;;24.90;23.10;;;;;;;21.47;91.86;99875.47;5034839;28;20205;-82
2021/07/14 10:37:50;;;;;;;25.20;23.50;;;;;;;21.55;91.95;99867.78;5035413;28;20256;-78
2021/07/14 10:40:18;;;;;;;24.43;22.43;;;;;;;21.60;91.21;99886.03;5035945;28;20259;-80
2021/07/14 10:42:46;;;;;;;22.67;20.70;;;;;;;21.60;91.04;99908.13;5036287;28;20218;-85
2021/07/14 10:45:14;;;;;;;23.03;21.17;;;;;;;21.68;90.71;99926.13;5036842;28;20694;-80
2021/07/14 10:47:40;;;;;;;16.90;15.50;;;;;;;21.72;90.59;99922.28;5033664;28;20295;-78
2021/07/14 10:50:10;;;;;;;12.83;11.97;;;;;;;21.75;89.99;99942.50;5037291;28;20275;-79
2021/07/14 10:52:37;;;;;;;12.63;11.83;;;;;;;21.74;89.50;99965.56;5037013;28;20253;-80
2021/07/14 10:55:04;;;;;;;11.53;10.60;;;;;;;21.69;89.19;99978.31;5036632;28;20210;-79
2021/07/14 10:57:31;;;;;;;11.60;10.90;;;;;;;21.62;89.25;99974.41;5037421;28;20687;-82
2021/07/14 10:59:58;;;;;;;12.03;11.23;;;;;;;21.58;90.14;99941.06;5035795;28;20672;-84
2021/07/14 11:02:39;;;;;;;11.90;11.10;;;;;;;21.56;89.38;99965.06;5036131;28;20723;-79
2021/07/14 11:05:07;;;;;;;11.33;10.40;;;;;;;21.57;89.47;99973.91;5035100;28;20274;-82
2021/07/14 11:07:43;;;;;;;11.10;10.40;;;;;;;21.63;89.66;99978.78;5030954;28;20640;-79
2021/07/14 11:10:23;;;;;;;9.27;8.57;;;;;;;21.66;89.37;99978.53;5034416;28;20205;-79
2021/07/14 11:12:50;;;;;;;9.90;9.10;;;;;;;21.75;89.05;99993.81;5034031;28;20628;-79
2021/07/14 11:15:28;;;;;;;9.07;8.43;;;;;;;21.86;88.98;99992.19;5035114;28;20248;-79
2021/07/14 11:17:54;;;;;;;7.07;6.57;;;;;;;21.91;88.54;100012.16;5035968;28;20233;-81
2021/07/14 11:20:21;;;;;;;6.07;5.67;;;;;;;21.93;87.83;100028.81;5036482;28;20664;-80
2021/07/14 11:22:51;;;;;;;6.07;5.67;;;;;;;21.99;87.83;100043.47;5037122;28;20248;-79